Aeroporto :
LOGIN :

Iscrizione | Disclaimer

   EN    FR    IT 

 










Sommario :    VFR   VFR Marginale   IFR   IFR Intensivo   IFR Molto Intensivo
Visibilità : 
Base nubi : 
>= 8 km
>= 3000ft
5 / 8 km
1000 / 3000 ft
1500m / 5 km
500 / 1000 ft
800 / 1500m
200 / 500 ft
< 800m
< 200 ft
Simboli :   Temporali  Nebbia  Neve Forte  Precipitazioni Forti  Vento > 20 kt
SIGMETs :   Varie  Temporali  Ghiacco  Turbolenza  Onda orograficha  Ceneri Vulcaniche






- Altitudine del aeroporto : 1674 ft
- Codice IATA : BRN


LSZB - Bern Belp

ULTIMO METAR :
  • 061550Z 12003KT 5000 1500S BCFG NSC M00/M01 Q1019 BECMG 1000 FG

METARs OBSOLETI :
  • 061520Z 14003KT 4800 BR FEW002 01/M00 Q1019 NOSIG
  • 061450Z 17004KT 6000 2000SE FEW002 01/00 Q1019 NOSIG
  • 061420Z 15003KT 5000 2000SW BR SCT002 02/01 Q1019 NOSIG
  • 061350Z 23003KT 1500 BR BKN003 01/00 Q1019 NOSIG
  • 061320Z 15003KT 120V190 1500 BR BKN003 01/00 Q1020 NOSIG

TAF TAF LSZB
Valido dal 06 a 15 ore il 07 a 00 ore UTC


061425Z 0615/0624 VRB03KT 5000 BR SCT003
BECMG 0616/0619 CAVOK
PROB40 0619/0624 4000 BR NSC
BECMG 0621/0623 8000 BKN110
ATIS : +41 22 417 40 76



MetMap, La meteo Aeronautica in un colpo d'occhio ! - Copyright ORBIFLY Dicembre 2007 - Disclaimer

ORBIFLY MET'MAP TEAM :

Programmazione e sviluppo : Alexandra Zaïnal
Concezione : Baudouin d'Aumeries
Aiuto per la programmazione : Marc-Olivier Méhu
Supporto tecnico e logistico : Manuel Goepfert
Aiuto per la traduzione : Arnaldo La Scala

Contatto : metmap@orbifly.com




FONTI E CREDITI :

   NOAA